createdAt,value
2023-05-27T00:01:53.222Z,19.65
2023-05-27T00:04:20.774Z,19.65
2023-05-27T00:06:49.004Z,19.69
2023-05-27T00:09:16.367Z,19.69
2023-05-27T00:11:43.747Z,19.67
2023-05-27T00:14:11.163Z,19.67
2023-05-27T00:16:38.665Z,19.66
2023-05-27T00:19:09.040Z,19.67
2023-05-27T00:21:37.912Z,19.70
2023-05-27T00:24:06.001Z,19.71
2023-05-27T00:26:33.283Z,19.73
2023-05-27T00:29:01.289Z,19.74
2023-05-27T00:31:28.790Z,19.72
2023-05-27T00:33:56.320Z,19.69
2023-05-27T00:36:23.721Z,19.71
2023-05-27T00:38:51.041Z,19.60
2023-05-27T00:41:18.987Z,19.56
2023-05-27T00:43:46.219Z,19.55
2023-05-27T00:46:13.548Z,19.57
2023-05-27T00:48:41.070Z,19.56
2023-05-27T00:51:08.152Z,19.52
2023-05-27T00:53:44.012Z,19.49
2023-05-27T00:56:14.152Z,19.48
2023-05-27T00:58:41.460Z,19.47
2023-05-27T01:01:08.651Z,19.49
2023-05-27T01:03:36.635Z,19.39
2023-05-27T01:06:31.660Z,19.25
2023-05-27T01:09:01.776Z,19.21
2023-05-27T01:11:39.247Z,19.18
2023-05-27T01:14:12.117Z,19.12
2023-05-27T01:16:45.143Z,19.10
2023-05-27T01:19:19.393Z,18.98
2023-05-27T01:21:53.309Z,18.91
2023-05-27T01:24:21.297Z,18.88
2023-05-27T01:26:49.148Z,18.92
2023-05-27T01:29:17.647Z,18.96
2023-05-27T01:32:19.837Z,19.04
2023-05-27T01:35:15.248Z,19.05
2023-05-27T01:37:44.869Z,19.06
2023-05-27T01:40:14.813Z,19.09
2023-05-27T01:42:44.678Z,19.14
2023-05-27T01:45:12.948Z,19.19
2023-05-27T01:47:41.153Z,19.11
2023-05-27T01:50:08.819Z,19.01
2023-05-27T01:52:36.270Z,18.98
2023-05-27T01:55:05.876Z,18.91
2023-05-27T01:57:33.677Z,18.83
2023-05-27T02:00:01.334Z,18.79
2023-05-27T02:02:28.709Z,18.79
2023-05-27T02:04:56.023Z,18.81
2023-05-27T02:07:24.075Z,18.89
2023-05-27T02:09:51.751Z,18.86
2023-05-27T02:12:19.924Z,18.82
2023-05-27T02:14:47.660Z,18.84
2023-05-27T02:17:15.989Z,18.88
2023-05-27T02:19:43.466Z,18.83
2023-05-27T02:22:11.573Z,18.70
2023-05-27T02:24:38.731Z,18.62
2023-05-27T02:27:07.085Z,18.60
2023-05-27T02:29:34.143Z,18.61
2023-05-27T02:32:01.534Z,18.62
2023-05-27T02:34:28.638Z,18.61
2023-05-27T02:36:56.790Z,18.59
2023-05-27T02:39:23.847Z,18.58
2023-05-27T02:41:52.629Z,18.60
2023-05-27T02:44:19.709Z,18.70
2023-05-27T02:46:46.982Z,18.67
2023-05-27T02:49:14.078Z,18.59
2023-05-27T02:51:41.273Z,18.49
2023-05-27T02:54:08.501Z,18.50
2023-05-27T02:56:35.880Z,18.44
2023-05-27T02:59:03.391Z,18.38
2023-05-27T03:01:30.664Z,18.27
2023-05-27T03:03:58.002Z,18.26
2023-05-27T03:06:25.080Z,18.23
2023-05-27T03:08:52.185Z,18.24
2023-05-27T03:11:19.407Z,18.29
2023-05-27T03:13:46.612Z,18.38
2023-05-27T03:16:15.309Z,18.39
2023-05-27T03:18:42.691Z,18.46
2023-05-27T03:21:10.130Z,18.45
2023-05-27T03:23:37.261Z,18.44
2023-05-27T03:26:04.840Z,18.41
2023-05-27T03:28:32.696Z,18.40
2023-05-27T03:31:00.891Z,18.42
2023-05-27T03:33:41.693Z,18.41
2023-05-27T03:36:09.214Z,18.41
2023-05-27T03:38:36.509Z,18.40
2023-05-27T03:41:03.805Z,18.41
2023-05-27T03:43:31.284Z,18.44
2023-05-27T03:45:58.851Z,18.44
2023-05-27T03:48:26.464Z,18.50
2023-05-27T03:50:53.547Z,18.54
2023-05-27T03:53:20.949Z,18.55
2023-05-27T03:55:47.979Z,18.55
2023-05-27T03:58:15.066Z,18.60
2023-05-27T04:00:42.902Z,18.61
2023-05-27T04:03:11.236Z,18.65
2023-05-27T04:05:38.765Z,18.72
2023-05-27T04:08:06.093Z,18.81
2023-05-27T04:10:33.385Z,18.89
2023-05-27T04:13:00.825Z,18.93
2023-05-27T04:15:27.992Z,18.98
2023-05-27T04:17:55.090Z,19.05
2023-05-27T04:20:23.146Z,19.10
2023-05-27T04:22:54.686Z,19.17
2023-05-27T04:25:21.959Z,19.14
2023-05-27T04:28:06.050Z,19.19
2023-05-27T04:30:36.163Z,19.21
2023-05-27T04:33:10.270Z,19.31
2023-05-27T04:35:38.141Z,19.34
2023-05-27T04:38:05.246Z,19.38
2023-05-27T04:40:47.707Z,19.40
2023-05-27T04:43:28.027Z,19.45
2023-05-27T04:45:57.281Z,19.49
2023-05-27T04:48:25.270Z,19.56
2023-05-27T04:50:55.208Z,19.61
2023-05-27T04:53:22.849Z,19.61
2023-05-27T04:55:52.346Z,19.67
2023-05-27T04:58:20.793Z,19.71
2023-05-27T05:00:54.603Z,19.73
2023-05-27T05:03:37.910Z,19.73
2023-05-27T05:06:06.705Z,19.85
2023-05-27T05:08:34.186Z,19.85
2023-05-27T05:11:01.904Z,19.80
2023-05-27T05:13:30.576Z,19.89
2023-05-27T05:15:57.987Z,19.94
2023-05-27T05:18:25.037Z,20.01
2023-05-27T05:20:55.732Z,19.92
2023-05-27T05:23:32.419Z,20.16
2023-05-27T05:26:07.232Z,20.52
2023-05-27T05:28:37.634Z,21.54
2023-05-27T05:31:06.291Z,22.94
2023-05-27T05:33:33.378Z,23.43
2023-05-27T05:36:01.318Z,23.29
2023-05-27T05:38:36.842Z,22.81
2023-05-27T05:41:04.366Z,22.06
2023-05-27T05:43:34.085Z,21.78
2023-05-27T05:46:03.443Z,21.56
2023-05-27T05:48:31.818Z,21.44
2023-05-27T05:51:02.162Z,22.14
2023-05-27T05:53:30.472Z,23.36
2023-05-27T05:55:57.850Z,25.02
2023-05-27T05:58:26.130Z,26.15
2023-05-27T06:00:53.389Z,27.17
2023-05-27T06:03:33.144Z,27.83
2023-05-27T06:06:01.853Z,28.20
2023-05-27T06:08:29.427Z,28.56
2023-05-27T06:11:03.299Z,28.91
2023-05-27T06:13:34.109Z,29.18
2023-05-27T06:16:06.099Z,29.09
2023-05-27T06:18:33.807Z,29.15
2023-05-27T06:21:00.853Z,29.06
2023-05-27T06:23:31.416Z,29.00
2023-05-27T06:26:07.553Z,28.86
2023-05-27T06:28:41.994Z,28.73
2023-05-27T06:31:10.975Z,28.58
2023-05-27T06:33:42.078Z,28.56
2023-05-27T06:36:09.700Z,28.22
2023-05-27T06:38:39.555Z,29.21
2023-05-27T06:41:06.892Z,29.94
2023-05-27T06:43:34.860Z,30.52
2023-05-27T06:46:20.765Z,30.50
2023-05-27T06:49:09.406Z,29.77
2023-05-27T06:51:37.266Z,29.23
2023-05-27T06:54:05.856Z,28.63
2023-05-27T06:56:38.434Z,27.72
2023-05-27T06:59:24.264Z,27.06
2023-05-27T07:01:52.575Z,26.64
2023-05-27T07:04:19.809Z,26.58
2023-05-27T07:06:55.938Z,26.77
2023-05-27T07:09:23.276Z,26.95
2023-05-27T07:11:50.413Z,26.82
2023-05-27T07:14:37.845Z,26.37
2023-05-27T07:17:06.348Z,26.48
2023-05-27T07:19:33.525Z,26.69
2023-05-27T07:22:05.915Z,26.81
2023-05-27T07:24:35.479Z,26.73
2023-05-27T07:27:06.012Z,27.35
2023-05-27T07:29:36.920Z,27.24
2023-05-27T07:32:15.362Z,27.17
2023-05-27T07:34:45.002Z,27.06
2023-05-27T07:37:14.668Z,26.79
2023-05-27T07:39:44.693Z,26.60
2023-05-27T07:42:18.097Z,26.33
2023-05-27T07:44:47.047Z,26.19
2023-05-27T07:47:16.182Z,26.24
2023-05-27T07:49:44.298Z,26.24
2023-05-27T07:52:34.710Z,25.99
2023-05-27T07:55:12.051Z,25.87
2023-05-27T07:57:41.772Z,25.80
2023-05-27T08:00:09.693Z,26.26
2023-05-27T08:02:54.832Z,26.19
2023-05-27T08:05:47.728Z,25.93
2023-05-27T08:08:33.420Z,25.63
2023-05-27T08:11:20.255Z,25.37
2023-05-27T08:13:59.481Z,25.04
2023-05-27T08:17:00.421Z,25.24
2023-05-27T08:19:51.029Z,25.18
2023-05-27T08:22:44.122Z,25.54
2023-05-27T08:25:20.695Z,25.75
2023-05-27T08:28:03.064Z,25.69
2023-05-27T08:31:02.594Z,25.82
2023-05-27T08:33:39.175Z,25.86
2023-05-27T08:36:07.207Z,25.96
2023-05-27T08:38:35.155Z,25.80
2023-05-27T08:41:18.375Z,25.65
2023-05-27T08:43:46.738Z,25.51
2023-05-27T08:46:16.230Z,24.88
2023-05-27T08:48:44.602Z,24.92
2023-05-27T08:51:13.885Z,25.04
2023-05-27T08:53:41.336Z,24.97
2023-05-27T08:56:10.230Z,25.04
2023-05-27T08:58:43.032Z,25.28
2023-05-27T09:01:10.944Z,25.27
2023-05-27T09:03:38.788Z,25.31
2023-05-27T09:06:06.409Z,25.56
2023-05-27T09:08:49.517Z,25.71
2023-05-27T09:11:25.401Z,25.89
2023-05-27T09:13:57.248Z,26.06
2023-05-27T09:16:31.619Z,26.21
2023-05-27T09:18:59.085Z,26.01
2023-05-27T09:21:30.139Z,25.88
2023-05-27T09:24:01.167Z,25.81
2023-05-27T09:26:29.062Z,25.42
2023-05-27T09:28:57.000Z,25.25
2023-05-27T09:31:25.550Z,25.17
2023-05-27T09:33:53.176Z,24.90
2023-05-27T09:36:23.905Z,24.61
2023-05-27T09:38:52.103Z,24.47
2023-05-27T09:41:26.532Z,24.60
2023-05-27T09:43:57.635Z,24.50
2023-05-27T09:46:27.274Z,24.37
2023-05-27T09:48:55.515Z,24.34
2023-05-27T09:51:23.911Z,24.44
2023-05-27T09:53:54.698Z,24.27
2023-05-27T09:56:24.699Z,24.00
2023-05-27T09:58:52.272Z,24.26
2023-05-27T10:01:20.263Z,24.37
2023-05-27T10:03:48.340Z,24.66
2023-05-27T10:06:16.649Z,24.62
2023-05-27T10:08:44.866Z,24.59
2023-05-27T10:11:13.019Z,24.22
2023-05-27T10:13:40.519Z,24.49
2023-05-27T10:16:07.745Z,24.72
2023-05-27T10:18:35.300Z,24.83
2023-05-27T10:21:06.418Z,24.70
2023-05-27T10:23:33.826Z,24.49
2023-05-27T10:26:07.406Z,24.56
2023-05-27T10:28:42.861Z,24.64
2023-05-27T10:31:18.954Z,24.47
2023-05-27T10:33:48.885Z,24.04
2023-05-27T10:36:37.877Z,23.62
2023-05-27T10:39:06.795Z,23.46
2023-05-27T10:41:42.518Z,23.54
2023-05-27T10:44:14.363Z,23.55
2023-05-27T10:46:45.536Z,23.75
2023-05-27T10:49:24.980Z,24.00
2023-05-27T10:51:54.747Z,23.76
2023-05-27T10:54:29.574Z,23.74
2023-05-27T10:56:57.558Z,23.73
2023-05-27T10:59:25.797Z,23.63
2023-05-27T11:01:54.858Z,23.44
2023-05-27T11:04:23.692Z,23.13
2023-05-27T11:07:03.706Z,23.07
2023-05-27T11:09:33.036Z,22.97
2023-05-27T11:12:06.582Z,22.90
2023-05-27T11:14:34.930Z,22.98
2023-05-27T11:17:02.184Z,23.02
2023-05-27T11:19:29.586Z,23.27
2023-05-27T11:21:56.992Z,23.34
2023-05-27T11:24:24.320Z,23.65
2023-05-27T11:26:52.263Z,23.79
2023-05-27T11:29:19.935Z,23.57
2023-05-27T11:31:50.970Z,23.73
2023-05-27T11:34:22.033Z,23.96
2023-05-27T11:36:51.361Z,24.17
2023-05-27T11:39:18.434Z,24.34
2023-05-27T11:41:52.380Z,24.34
2023-05-27T11:44:26.413Z,24.45
2023-05-27T11:47:02.554Z,24.63
2023-05-27T11:49:30.042Z,24.69
2023-05-27T11:51:58.759Z,24.30
2023-05-27T11:54:28.559Z,23.92
2023-05-27T11:56:57.401Z,23.66
2023-05-27T11:59:25.257Z,23.58
2023-05-27T12:01:55.390Z,23.26
2023-05-27T12:04:22.801Z,23.07
2023-05-27T12:06:49.961Z,22.93
2023-05-27T12:09:17.630Z,22.79
2023-05-27T12:11:44.724Z,22.74
2023-05-27T12:14:11.871Z,22.75
2023-05-27T12:16:39.129Z,22.71
2023-05-27T12:19:06.745Z,22.67
2023-05-27T12:21:33.885Z,22.67
2023-05-27T12:24:01.025Z,22.54
2023-05-27T12:26:28.272Z,22.60
2023-05-27T12:28:55.603Z,22.53
2023-05-27T12:31:24.310Z,22.51
2023-05-27T12:33:51.486Z,22.51
2023-05-27T12:36:20.473Z,22.49
2023-05-27T12:38:47.832Z,22.62
2023-05-27T12:41:15.111Z,22.54
2023-05-27T12:43:42.169Z,22.46
2023-05-27T12:46:09.701Z,22.53
2023-05-27T12:48:36.833Z,22.67
2023-05-27T12:51:04.382Z,22.93
2023-05-27T12:53:31.564Z,23.23
2023-05-27T12:55:58.797Z,23.56
2023-05-27T12:58:25.996Z,23.66
2023-05-27T13:00:55.606Z,23.79
2023-05-27T13:03:23.031Z,23.88
2023-05-27T13:05:50.534Z,23.60
2023-05-27T13:08:17.805Z,23.61
2023-05-27T13:10:45.881Z,23.79
2023-05-27T13:13:12.986Z,23.86
2023-05-27T13:15:42.814Z,24.09
2023-05-27T13:18:11.538Z,24.18
2023-05-27T13:20:39.159Z,23.99
2023-05-27T13:23:06.945Z,23.76
2023-05-27T13:25:34.259Z,23.70
2023-05-27T13:28:02.747Z,23.73
2023-05-27T13:30:30.321Z,23.58
2023-05-27T13:32:57.684Z,23.47
2023-05-27T13:35:24.911Z,23.53
2023-05-27T13:37:52.633Z,23.64
2023-05-27T13:40:20.245Z,23.85
2023-05-27T13:42:47.678Z,23.93
2023-05-27T13:45:14.862Z,23.97
2023-05-27T13:47:44.187Z,23.93
2023-05-27T13:50:11.631Z,23.90
2023-05-27T13:52:40.192Z,23.90
2023-05-27T13:55:08.053Z,23.86
2023-05-27T13:57:35.334Z,23.95
2023-05-27T14:00:02.520Z,24.15
2023-05-27T14:02:32.278Z,24.43
2023-05-27T14:04:59.592Z,24.49
2023-05-27T14:07:26.976Z,24.80
2023-05-27T14:09:56.007Z,24.93
2023-05-27T14:12:23.292Z,24.96
2023-05-27T14:14:50.410Z,24.78
2023-05-27T14:17:17.559Z,24.69
2023-05-27T14:19:44.726Z,24.61
2023-05-27T14:22:12.893Z,24.38
2023-05-27T14:24:39.910Z,23.96
2023-05-27T14:27:08.166Z,23.48
2023-05-27T14:29:35.512Z,23.08
2023-05-27T14:32:03.081Z,22.87
2023-05-27T14:34:30.287Z,22.84
2023-05-27T14:36:57.424Z,22.82
2023-05-27T14:39:24.632Z,22.90
2023-05-27T14:41:51.875Z,22.84
2023-05-27T14:44:19.144Z,22.88
2023-05-27T14:46:46.456Z,22.98
2023-05-27T14:49:13.668Z,23.06
2023-05-27T14:51:40.893Z,23.06
2023-05-27T14:54:09.859Z,23.05
2023-05-27T14:56:38.422Z,23.07
2023-05-27T14:59:05.639Z,23.05
2023-05-27T15:01:32.980Z,23.20
2023-05-27T15:04:00.403Z,23.03
2023-05-27T15:06:27.779Z,22.81
2023-05-27T15:08:54.956Z,22.71
2023-05-27T15:11:22.170Z,22.82
2023-05-27T15:13:49.232Z,22.92
2023-05-27T15:16:16.492Z,22.88
2023-05-27T15:18:43.625Z,22.85
2023-05-27T15:21:11.211Z,22.90
2023-05-27T15:23:38.404Z,22.89
2023-05-27T15:26:05.659Z,22.88
2023-05-27T15:28:32.918Z,22.90
2023-05-27T15:31:00.205Z,22.94
2023-05-27T15:33:27.516Z,22.99
2023-05-27T15:35:55.132Z,23.07
2023-05-27T15:38:22.306Z,23.13
2023-05-27T15:40:49.499Z,23.12
2023-05-27T15:46:33.221Z,22.22
2023-05-27T15:49:01.343Z,21.96
2023-05-27T15:51:28.757Z,21.82
2023-05-27T15:53:56.523Z,21.67
2023-05-27T15:56:23.740Z,21.58
2023-05-27T15:58:50.938Z,21.58
2023-05-27T16:01:18.128Z,21.57
2023-05-27T16:03:45.337Z,21.53
2023-05-27T16:06:12.750Z,21.47
2023-05-27T16:08:39.828Z,21.51
2023-05-27T16:11:07.414Z,21.43
2023-05-27T16:13:36.548Z,21.41
2023-05-27T16:16:03.800Z,21.41
2023-05-27T16:18:32.919Z,21.37
2023-05-27T16:21:00.805Z,21.46
2023-05-27T16:23:28.339Z,21.58
2023-05-27T16:25:56.476Z,21.68
2023-05-27T16:28:24.167Z,21.73
2023-05-27T16:30:52.155Z,21.84
2023-05-27T16:33:19.682Z,21.94
2023-05-27T16:35:46.866Z,21.95
2023-05-27T16:38:14.183Z,21.97
2023-05-27T16:40:41.198Z,21.95
2023-05-27T16:43:08.618Z,21.87
2023-05-27T16:45:35.695Z,21.92
2023-05-27T16:48:07.946Z,21.90
2023-05-27T16:50:38.368Z,21.80
2023-05-27T16:53:05.676Z,21.83
2023-05-27T16:55:32.688Z,21.82
2023-05-27T16:57:59.942Z,21.82
2023-05-27T17:00:27.141Z,21.82
2023-05-27T17:02:54.432Z,21.79
2023-05-27T17:05:21.755Z,21.83
2023-05-27T17:07:49.008Z,21.74
2023-05-27T17:10:16.461Z,21.77
2023-05-27T17:12:43.707Z,21.75
2023-05-27T17:15:11.839Z,21.72
2023-05-27T17:17:39.231Z,21.68
2023-05-27T17:20:08.409Z,21.65
2023-05-27T17:22:38.772Z,21.58
2023-05-27T17:25:06.683Z,21.56
2023-05-27T17:27:35.084Z,21.57
2023-05-27T17:30:04.033Z,21.59
2023-05-27T17:32:31.248Z,21.63
2023-05-27T17:34:58.341Z,21.64
2023-05-27T17:37:28.277Z,21.59
2023-05-27T17:39:55.814Z,21.53
2023-05-27T17:42:23.406Z,21.44
2023-05-27T17:44:51.072Z,21.42
2023-05-27T17:47:18.081Z,21.37
2023-05-27T17:49:45.448Z,21.29
2023-05-27T17:52:20.942Z,21.25
2023-05-27T17:54:49.218Z,21.19
2023-05-27T17:57:16.251Z,21.19
2023-05-27T17:59:44.743Z,21.17
2023-05-27T18:02:11.851Z,21.17
2023-05-27T18:04:39.079Z,21.13
2023-05-27T18:07:06.344Z,21.10
2023-05-27T18:09:33.494Z,21.10
2023-05-27T18:12:00.495Z,21.12
2023-05-27T18:14:29.775Z,21.13
2023-05-27T18:16:57.116Z,21.11
2023-05-27T18:19:27.150Z,21.07
2023-05-27T18:22:00.077Z,21.05
2023-05-27T18:24:28.477Z,21.03
2023-05-27T18:26:56.689Z,21.01
2023-05-27T18:29:26.658Z,20.99
2023-05-27T18:31:53.909Z,20.98
2023-05-27T18:34:21.178Z,20.97
2023-05-27T18:36:48.506Z,20.96
2023-05-27T18:39:15.760Z,20.99
2023-05-27T18:41:44.422Z,20.97
2023-05-27T18:44:11.533Z,21.00
2023-05-27T18:46:39.498Z,20.96
2023-05-27T18:49:07.300Z,20.90
2023-05-27T18:51:35.069Z,20.88
2023-05-27T18:54:02.920Z,20.85
2023-05-27T18:56:31.755Z,20.80
2023-05-27T18:58:59.005Z,20.79
2023-05-27T19:01:26.327Z,20.81
2023-05-27T19:03:53.555Z,20.78
2023-05-27T19:06:21.084Z,20.77
2023-05-27T19:08:48.112Z,20.76
2023-05-27T19:11:15.303Z,20.74
2023-05-27T19:13:42.597Z,20.74
2023-05-27T19:16:10.011Z,20.74
2023-05-27T19:18:37.276Z,20.77
2023-05-27T19:21:05.169Z,20.78
2023-05-27T19:23:32.514Z,20.81
2023-05-27T19:25:59.772Z,20.84
2023-05-27T19:28:26.885Z,20.85
2023-05-27T19:30:54.449Z,20.84
2023-05-27T19:33:23.716Z,20.84
2023-05-27T19:35:51.564Z,20.81
2023-05-27T19:38:18.838Z,20.77
2023-05-27T19:40:46.202Z,20.77
2023-05-27T19:43:13.749Z,20.76
2023-05-27T19:45:41.528Z,20.75
2023-05-27T19:48:09.274Z,20.75
2023-05-27T19:50:37.532Z,20.74
2023-05-27T19:53:05.749Z,20.76
2023-05-27T19:55:36.653Z,20.72
2023-05-27T19:58:05.423Z,20.67
2023-05-27T20:00:33.001Z,20.58
2023-05-27T20:03:00.465Z,20.55
2023-05-27T20:05:28.581Z,20.51
2023-05-27T20:07:56.560Z,20.47
2023-05-27T20:10:24.492Z,20.49
2023-05-27T20:12:52.619Z,20.47
2023-05-27T20:15:19.856Z,20.44
2023-05-27T20:17:47.284Z,20.46
2023-05-27T20:20:14.763Z,20.44
2023-05-27T20:22:42.469Z,20.41
2023-05-27T20:25:10.252Z,20.35
2023-05-27T20:27:37.502Z,20.34
2023-05-27T20:30:05.479Z,20.26
2023-05-27T20:32:32.670Z,20.20
2023-05-27T20:34:59.966Z,20.14
2023-05-27T20:37:27.069Z,20.08
2023-05-27T20:39:54.677Z,20.04
2023-05-27T20:42:21.947Z,20.02
2023-05-27T20:44:49.200Z,19.88
2023-05-27T20:47:16.738Z,19.86
2023-05-27T20:49:43.849Z,19.81
2023-05-27T20:52:11.097Z,19.77
2023-05-27T20:54:38.204Z,19.78
2023-05-27T20:57:06.508Z,19.67
2023-05-27T20:59:33.973Z,19.58
2023-05-27T21:02:09.243Z,19.52
2023-05-27T21:04:36.648Z,19.45
2023-05-27T21:07:03.767Z,19.39
2023-05-27T21:09:32.663Z,19.33
2023-05-27T21:11:59.926Z,19.33
2023-05-27T21:14:27.237Z,19.31
2023-05-27T21:16:54.463Z,19.25
2023-05-27T21:19:21.729Z,19.23
2023-05-27T21:21:49.222Z,19.20
2023-05-27T21:24:16.642Z,19.17
2023-05-27T21:26:44.339Z,19.15
2023-05-27T21:29:12.133Z,19.16
2023-05-27T21:31:39.503Z,19.15
2023-05-27T21:34:07.075Z,19.11
2023-05-27T21:36:34.770Z,19.07
2023-05-27T21:39:01.868Z,19.03
2023-05-27T21:41:29.146Z,18.98
2023-05-27T21:43:56.439Z,18.96
2023-05-27T21:46:23.838Z,18.93
2023-05-27T21:48:51.258Z,18.97
2023-05-27T21:51:18.413Z,19.00
2023-05-27T21:53:46.310Z,18.99
2023-05-27T21:56:13.500Z,19.05
2023-05-27T21:58:41.911Z,19.04
2023-05-27T22:01:13.315Z,19.04
2023-05-27T22:03:41.367Z,19.04
2023-05-27T22:06:08.541Z,19.04
2023-05-27T22:08:36.487Z,19.06
2023-05-27T22:11:04.522Z,19.07
2023-05-27T22:13:32.408Z,19.09
2023-05-27T22:16:02.250Z,19.09
2023-05-27T22:18:29.968Z,19.08
2023-05-27T22:20:57.445Z,19.09
2023-05-27T22:23:24.706Z,19.09
2023-05-27T22:25:51.970Z,19.09
2023-05-27T22:28:19.413Z,19.10
2023-05-27T22:30:46.981Z,19.12
2023-05-27T22:33:14.248Z,19.12
2023-05-27T22:35:41.276Z,19.10
2023-05-27T22:38:08.507Z,19.06
2023-05-27T22:40:36.008Z,19.05
2023-05-27T22:43:03.130Z,19.06
2023-05-27T22:45:30.414Z,19.08
2023-05-27T22:47:57.719Z,19.05
2023-05-27T22:50:25.045Z,18.99
2023-05-27T22:52:52.132Z,18.94
2023-05-27T22:55:19.455Z,18.93
2023-05-27T22:57:46.568Z,18.94
2023-05-27T23:00:14.424Z,18.91
2023-05-27T23:02:41.694Z,18.91
2023-05-27T23:05:09.180Z,18.91
2023-05-27T23:07:36.406Z,18.94
2023-05-27T23:10:03.660Z,19.01
2023-05-27T23:12:30.856Z,18.94
2023-05-27T23:14:57.885Z,18.88
2023-05-27T23:17:25.247Z,18.88
2023-05-27T23:19:52.417Z,18.84
2023-05-27T23:22:19.692Z,18.80
2023-05-27T23:24:46.712Z,18.79
2023-05-27T23:27:13.760Z,18.78
2023-05-27T23:29:41.022Z,18.78
2023-05-27T23:32:08.097Z,18.75
2023-05-27T23:34:35.194Z,18.82
2023-05-27T23:37:02.388Z,18.86
2023-05-27T23:39:29.406Z,18.82
2023-05-27T23:41:58.322Z,18.77
2023-05-27T23:44:26.303Z,18.73
2023-05-27T23:46:53.385Z,18.71
2023-05-27T23:49:20.578Z,18.71
2023-05-27T23:51:48.030Z,18.67
2023-05-27T23:54:15.243Z,18.67
2023-05-27T23:56:42.367Z,18.65
2023-05-27T23:59:09.442Z,18.62
